createdAt,value
2019-06-20T00:01:54.047Z,19.26
2019-06-20T00:04:23.530Z,19.20
2019-06-20T00:06:53.027Z,19.14
2019-06-20T00:09:22.560Z,19.08
2019-06-20T00:11:52.267Z,19.04
2019-06-20T00:14:21.758Z,18.98
2019-06-20T00:16:51.302Z,18.94
2019-06-20T00:19:20.766Z,18.88
2019-06-20T00:21:50.246Z,18.84
2019-06-20T00:24:19.734Z,18.80
2019-06-20T00:26:49.276Z,18.77
2019-06-20T00:29:18.904Z,18.73
2019-06-20T00:31:48.405Z,18.70
2019-06-20T00:34:17.863Z,18.68
2019-06-20T00:36:47.359Z,18.66
2019-06-20T00:39:16.839Z,18.65
2019-06-20T00:41:46.379Z,18.65
2019-06-20T00:44:15.858Z,18.65
2019-06-20T00:46:45.324Z,18.64
2019-06-20T00:49:14.803Z,18.65
2019-06-20T00:51:44.333Z,18.66
2019-06-20T00:54:15.360Z,18.66
2019-06-20T00:56:44.831Z,18.68
2019-06-20T00:59:14.356Z,18.71
2019-06-20T01:01:43.862Z,18.73
2019-06-20T01:04:13.583Z,18.77
2019-06-20T01:06:43.081Z,18.80
2019-06-20T01:09:12.628Z,18.84
2019-06-20T01:11:42.248Z,18.87
2019-06-20T01:14:11.726Z,18.92
2019-06-20T01:16:41.231Z,18.95
2019-06-20T01:19:10.756Z,18.99
2019-06-20T01:21:40.388Z,19.01
2019-06-20T01:24:09.859Z,19.06
2019-06-20T01:26:39.342Z,19.10
2019-06-20T01:29:08.922Z,19.13
2019-06-20T01:31:38.411Z,19.18
2019-06-20T01:34:08.021Z,19.23
2019-06-20T01:36:37.598Z,19.28
2019-06-20T01:39:08.575Z,19.33
2019-06-20T01:41:38.254Z,19.36
2019-06-20T01:44:07.806Z,19.43
2019-06-20T01:46:37.299Z,19.48
2019-06-20T01:49:07.039Z,19.54
2019-06-20T01:51:36.565Z,19.60
2019-06-20T01:54:06.215Z,19.65
2019-06-20T01:56:38.442Z,19.70
2019-06-20T01:59:07.986Z,19.75
2019-06-20T02:01:37.609Z,19.79
2019-06-20T02:04:07.365Z,19.83
2019-06-20T02:06:36.861Z,19.88
2019-06-20T02:09:09.021Z,19.94
2019-06-20T02:11:38.588Z,19.99
2019-06-20T02:14:08.313Z,20.03
2019-06-20T02:16:37.844Z,20.07
2019-06-20T02:19:07.359Z,20.11
2019-06-20T02:21:36.925Z,20.14
2019-06-20T02:24:06.450Z,20.17
2019-06-20T02:26:36.067Z,20.21
2019-06-20T02:29:05.811Z,20.24
2019-06-20T02:31:35.345Z,20.27
2019-06-20T02:34:04.971Z,20.28
2019-06-20T02:36:34.437Z,20.32
2019-06-20T02:39:05.114Z,20.34
2019-06-20T02:41:34.834Z,20.36
2019-06-20T02:44:05.419Z,20.37
2019-06-20T02:46:34.975Z,20.40
2019-06-20T02:49:04.777Z,20.41
2019-06-20T02:51:34.890Z,20.43
2019-06-20T02:54:04.470Z,20.43
2019-06-20T02:56:34.004Z,20.45
2019-06-20T02:59:03.553Z,20.45
2019-06-20T03:01:33.031Z,20.45
2019-06-20T03:04:02.499Z,20.46
2019-06-20T03:06:32.200Z,20.46
2019-06-20T03:09:01.714Z,20.45
2019-06-20T03:11:31.183Z,20.44
2019-06-20T03:14:00.743Z,20.41
2019-06-20T03:16:30.205Z,20.40
2019-06-20T03:18:59.710Z,20.38
2019-06-20T03:21:29.175Z,20.36
2019-06-20T03:23:58.746Z,20.34
2019-06-20T03:26:28.232Z,20.33
2019-06-20T03:28:57.675Z,20.32
2019-06-20T03:31:27.179Z,20.31
2019-06-20T03:33:56.689Z,20.30
2019-06-20T03:36:26.176Z,20.29
2019-06-20T03:38:55.750Z,20.30
2019-06-20T03:41:25.215Z,20.30
2019-06-20T03:43:54.680Z,20.31
2019-06-20T03:46:24.160Z,20.31
2019-06-20T03:48:53.618Z,20.33
2019-06-20T03:51:23.080Z,20.33
2019-06-20T03:53:52.583Z,20.35
2019-06-20T03:56:22.029Z,20.36
2019-06-20T03:58:51.517Z,20.38
2019-06-20T04:01:20.975Z,20.39
2019-06-20T04:03:50.456Z,20.40
2019-06-20T04:06:19.939Z,20.40
2019-06-20T04:08:49.563Z,20.42
2019-06-20T04:11:19.102Z,20.42
2019-06-20T04:13:48.575Z,20.43
2019-06-20T04:16:18.160Z,20.44
2019-06-20T04:18:47.612Z,20.44
2019-06-20T04:21:17.099Z,20.45
2019-06-20T04:23:46.588Z,20.46
2019-06-20T04:26:16.067Z,20.46
2019-06-20T04:28:45.543Z,20.47
2019-06-20T04:31:15.017Z,20.47
2019-06-20T04:33:44.507Z,20.47
2019-06-20T04:36:13.980Z,20.47
2019-06-20T04:38:43.535Z,20.47
2019-06-20T04:41:13.012Z,20.49
2019-06-20T04:43:42.472Z,20.50
2019-06-20T04:46:22.166Z,20.52
2019-06-20T04:48:51.636Z,20.51
2019-06-20T04:51:21.122Z,20.53
2019-06-20T04:53:50.586Z,20.53
2019-06-20T04:56:20.229Z,20.53
2019-06-20T04:58:49.725Z,20.53
2019-06-20T05:01:19.186Z,20.53
2019-06-20T05:03:48.689Z,20.52
2019-06-20T05:06:18.151Z,20.53
2019-06-20T05:08:47.693Z,20.55
2019-06-20T05:11:17.162Z,20.56
2019-06-20T05:13:46.651Z,20.59
2019-06-20T05:16:16.106Z,20.63
2019-06-20T05:18:45.578Z,20.65
2019-06-20T05:21:15.057Z,20.70
2019-06-20T05:23:44.602Z,20.74
2019-06-20T05:26:14.086Z,20.78
2019-06-20T05:28:43.576Z,20.85
2019-06-20T05:31:13.049Z,20.88
2019-06-20T05:33:42.513Z,20.93
2019-06-20T05:36:12.064Z,20.96
2019-06-20T05:39:00.899Z,20.99
2019-06-20T05:41:30.353Z,21.00
2019-06-20T05:43:59.891Z,21.03
2019-06-20T05:46:35.349Z,21.04
2019-06-20T05:49:04.905Z,21.06
2019-06-20T05:51:34.372Z,21.08
2019-06-20T05:54:04.499Z,21.08
2019-06-20T05:56:33.970Z,21.11
2019-06-20T05:59:03.492Z,21.11
2019-06-20T06:01:33.016Z,21.11
2019-06-20T06:04:02.482Z,21.11
2019-06-20T06:06:31.990Z,21.12
2019-06-20T06:09:01.716Z,21.11
2019-06-20T06:11:31.335Z,21.11
2019-06-20T06:14:20.161Z,21.10
2019-06-20T06:16:49.760Z,21.11
2019-06-20T06:19:19.259Z,21.11
2019-06-20T06:21:48.730Z,21.12
2019-06-20T06:24:18.229Z,21.11
2019-06-20T06:26:47.690Z,21.13
2019-06-20T06:29:17.171Z,21.14
2019-06-20T06:31:46.647Z,21.15
2019-06-20T06:34:16.116Z,21.16
2019-06-20T06:36:45.592Z,21.17
2019-06-20T06:39:15.050Z,21.18
2019-06-20T06:41:44.533Z,21.19
2019-06-20T06:44:14.003Z,21.19
2019-06-20T06:46:52.107Z,21.20
2019-06-20T06:49:14.725Z,21.21
2019-06-20T06:51:44.272Z,21.24
2019-06-20T06:54:13.810Z,21.27
2019-06-20T06:56:43.294Z,21.31
2019-06-20T06:59:12.794Z,21.33
2019-06-20T07:01:42.407Z,21.38
2019-06-20T07:04:11.884Z,21.42
2019-06-20T07:06:41.521Z,21.49
2019-06-20T07:09:11.109Z,21.55
2019-06-20T07:11:40.588Z,21.61
2019-06-20T07:14:10.213Z,21.69
2019-06-20T07:16:39.765Z,21.74
2019-06-20T07:19:09.240Z,21.85
2019-06-20T07:21:38.792Z,21.94
2019-06-20T07:24:08.269Z,22.04
2019-06-20T07:26:39.352Z,22.16
2019-06-20T07:29:08.887Z,22.27
2019-06-20T07:31:38.415Z,22.39
2019-06-20T07:34:07.900Z,22.52
2019-06-20T07:36:37.374Z,22.63
2019-06-20T07:39:09.662Z,22.70
2019-06-20T07:41:39.155Z,22.81
2019-06-20T07:44:15.985Z,22.91
2019-06-20T07:46:45.447Z,22.99
2019-06-20T07:49:14.929Z,23.10
2019-06-20T07:51:44.479Z,23.17
2019-06-20T07:54:13.956Z,23.24
2019-06-20T07:56:43.449Z,23.32
2019-06-20T07:59:12.916Z,23.38
2019-06-20T08:01:42.399Z,23.45
2019-06-20T08:04:11.908Z,23.49
2019-06-20T08:06:41.443Z,23.54
2019-06-20T08:09:10.996Z,23.59
2019-06-20T08:11:40.533Z,23.64
2019-06-20T08:14:10.027Z,23.66
2019-06-20T08:16:39.534Z,23.71
2019-06-20T08:19:09.111Z,23.75
2019-06-20T08:21:38.760Z,23.83
2019-06-20T08:24:08.408Z,23.88
2019-06-20T08:26:37.959Z,23.95
2019-06-20T08:29:20.373Z,24.02
2019-06-20T08:31:38.903Z,24.09
2019-06-20T08:34:08.443Z,24.16
2019-06-20T08:36:38.040Z,24.22
2019-06-20T08:39:09.979Z,24.29
2019-06-20T08:41:39.522Z,24.38
2019-06-20T08:44:09.249Z,24.40
2019-06-20T08:46:38.762Z,24.43
2019-06-20T08:49:08.269Z,24.47
2019-06-20T08:51:37.800Z,24.55
2019-06-20T08:54:07.374Z,24.60
2019-06-20T08:56:36.848Z,24.69
2019-06-20T08:59:06.480Z,24.74
2019-06-20T09:01:36.040Z,24.77
2019-06-20T09:04:06.123Z,24.82
2019-06-20T09:06:35.592Z,24.91
2019-06-20T09:09:07.086Z,25.02
2019-06-20T09:11:36.557Z,25.14
2019-06-20T09:14:06.579Z,25.27
2019-06-20T09:16:36.054Z,25.36
2019-06-20T09:19:05.726Z,25.39
2019-06-20T09:21:35.368Z,25.37
2019-06-20T09:24:05.699Z,25.36
2019-06-20T09:26:36.045Z,25.39
2019-06-20T09:29:05.618Z,25.41
2019-06-20T09:31:35.234Z,25.47
2019-06-20T09:34:05.455Z,25.55
2019-06-20T09:36:35.179Z,25.65
2019-06-20T09:39:06.756Z,25.77
2019-06-20T09:41:36.251Z,25.84
2019-06-20T09:44:05.879Z,25.92
2019-06-20T09:46:35.763Z,26.03
2019-06-20T09:49:05.366Z,26.15
2019-06-20T09:51:34.885Z,26.23
2019-06-20T09:54:05.106Z,26.33
2019-06-20T09:56:34.557Z,26.43
2019-06-20T09:59:04.089Z,26.52
2019-06-20T10:01:33.712Z,26.57
2019-06-20T10:04:03.274Z,26.58
2019-06-20T10:06:32.880Z,26.59
2019-06-20T10:09:02.498Z,26.65
2019-06-20T10:11:32.042Z,26.71
2019-06-20T10:14:01.516Z,26.73
2019-06-20T10:16:45.052Z,26.73
2019-06-20T10:19:02.357Z,26.75
2019-06-20T10:21:31.921Z,26.78
2019-06-20T10:24:01.495Z,26.82
2019-06-20T10:26:30.997Z,26.89
2019-06-20T10:29:00.496Z,26.98
2019-06-20T10:31:29.957Z,26.99
2019-06-20T10:33:59.466Z,26.94
2019-06-20T10:36:28.982Z,26.82
2019-06-20T10:38:58.631Z,26.71
2019-06-20T10:41:28.179Z,26.59
2019-06-20T10:43:57.747Z,26.47
2019-06-20T10:46:27.219Z,26.41
2019-06-20T10:48:56.714Z,26.35
2019-06-20T10:51:33.831Z,26.26
2019-06-20T10:54:03.328Z,26.18
2019-06-20T10:56:33.239Z,26.13
2019-06-20T10:59:02.782Z,26.15
2019-06-20T11:01:32.252Z,26.16
2019-06-20T11:04:01.745Z,26.18
2019-06-20T11:06:31.384Z,26.20
2019-06-20T11:09:00.834Z,26.23
2019-06-20T11:11:30.343Z,26.26
2019-06-20T11:13:59.867Z,26.29
2019-06-20T11:16:29.362Z,26.30
2019-06-20T11:18:58.827Z,26.35
2019-06-20T11:21:28.409Z,26.39
2019-06-20T11:23:57.943Z,26.46
2019-06-20T11:26:27.423Z,26.52
2019-06-20T11:28:56.910Z,26.58
2019-06-20T11:31:26.446Z,26.62
2019-06-20T11:33:55.961Z,26.65
2019-06-20T11:36:25.439Z,26.69
2019-06-20T11:38:54.933Z,26.74
2019-06-20T11:41:24.448Z,26.81
2019-06-20T11:43:53.922Z,26.85
2019-06-20T11:46:23.442Z,26.91
2019-06-20T11:48:52.980Z,26.98
2019-06-20T11:51:22.537Z,27.08
2019-06-20T11:53:52.048Z,27.22
2019-06-20T11:56:21.609Z,27.35
2019-06-20T11:58:51.113Z,27.44
2019-06-20T12:01:32.265Z,27.50
2019-06-20T12:03:51.816Z,27.54
2019-06-20T12:06:21.361Z,27.57
2019-06-20T12:08:50.847Z,27.57
2019-06-20T12:11:20.323Z,27.55
2019-06-20T12:13:49.926Z,27.51
2019-06-20T12:16:19.414Z,27.45
2019-06-20T12:18:49.475Z,27.37
2019-06-20T12:21:19.129Z,27.28
2019-06-20T12:23:49.023Z,27.17
2019-06-20T12:26:18.554Z,27.07
2019-06-20T12:28:48.715Z,26.98
2019-06-20T12:31:19.870Z,26.91
2019-06-20T12:33:49.655Z,26.85
2019-06-20T12:36:19.192Z,26.81
2019-06-20T12:38:48.697Z,26.79
2019-06-20T12:41:18.178Z,26.78
2019-06-20T12:43:48.325Z,26.79
2019-06-20T12:46:17.932Z,26.79
2019-06-20T12:48:47.478Z,26.82
2019-06-20T12:51:17.036Z,26.83
2019-06-20T12:53:46.634Z,26.84
2019-06-20T12:56:16.168Z,26.83
2019-06-20T12:58:46.689Z,26.78
2019-06-20T13:01:16.355Z,26.72
2019-06-20T13:03:46.375Z,26.65
2019-06-20T13:06:16.030Z,26.58
2019-06-20T13:08:45.511Z,26.49
2019-06-20T13:11:14.995Z,26.39
2019-06-20T13:13:44.556Z,26.24
2019-06-20T13:16:14.037Z,26.10
2019-06-20T13:18:44.626Z,25.95
2019-06-20T13:21:14.292Z,25.79
2019-06-20T13:23:45.021Z,25.64
2019-06-20T13:26:14.635Z,25.47
2019-06-20T13:29:02.838Z,25.31
2019-06-20T13:31:15.338Z,25.16
2019-06-20T13:33:44.841Z,24.99
2019-06-20T13:36:14.372Z,24.81
2019-06-20T13:38:44.500Z,24.64
2019-06-20T13:41:14.081Z,24.47
2019-06-20T13:43:43.714Z,24.28
2019-06-20T13:46:13.228Z,24.08
2019-06-20T13:48:43.998Z,23.88
2019-06-20T13:51:13.972Z,23.68
2019-06-20T13:53:44.209Z,23.50
2019-06-20T13:56:13.792Z,23.34
2019-06-20T13:58:44.727Z,23.22
2019-06-20T14:01:14.281Z,23.15
2019-06-20T14:03:45.323Z,23.09
2019-06-20T14:06:15.019Z,23.08
2019-06-20T14:08:45.903Z,23.09
2019-06-20T14:11:15.498Z,23.11
2019-06-20T14:13:48.373Z,23.20
2019-06-20T14:16:16.302Z,23.28
2019-06-20T14:18:46.533Z,23.38
2019-06-20T14:21:16.182Z,23.46
2019-06-20T14:23:46.182Z,23.52
2019-06-20T14:26:15.856Z,23.58
2019-06-20T14:28:46.104Z,23.63
2019-06-20T14:31:15.836Z,23.65
2019-06-20T14:33:46.123Z,23.67
2019-06-20T14:36:15.734Z,23.68
2019-06-20T14:38:45.800Z,23.70
2019-06-20T14:41:15.492Z,23.72
2019-06-20T14:43:46.146Z,23.73
2019-06-20T14:46:16.056Z,23.71
2019-06-20T14:48:46.823Z,23.69
2019-06-20T14:51:16.817Z,23.65
2019-06-20T14:53:47.225Z,23.59
2019-06-20T14:56:16.757Z,23.53
2019-06-20T14:58:46.699Z,23.48
2019-06-20T15:01:16.389Z,23.43
2019-06-20T15:03:47.324Z,23.39
2019-06-20T15:06:17.515Z,23.37
2019-06-20T15:08:47.621Z,23.36
2019-06-20T15:11:18.368Z,23.31
2019-06-20T15:13:49.289Z,23.25
2019-06-20T15:16:18.891Z,23.16
2019-06-20T15:18:51.980Z,23.07
2019-06-20T15:21:19.731Z,22.96
2019-06-20T15:23:50.858Z,22.87
2019-06-20T15:26:20.651Z,22.78
2019-06-20T15:28:51.804Z,22.73
2019-06-20T15:31:21.620Z,22.69
2019-06-20T15:33:51.606Z,22.70
2019-06-20T15:36:22.397Z,22.71
2019-06-20T15:38:53.008Z,22.76
2019-06-20T15:41:22.645Z,22.80
2019-06-20T15:43:53.652Z,22.85
2019-06-20T15:46:23.374Z,22.89
2019-06-20T15:48:52.850Z,22.95
2019-06-20T15:51:22.335Z,23.00
2019-06-20T15:54:11.158Z,23.09
2019-06-20T15:56:40.778Z,23.16
2019-06-20T15:59:10.220Z,23.28
2019-06-20T16:01:39.702Z,23.44
2019-06-20T16:04:09.218Z,23.62
2019-06-20T16:06:38.683Z,23.82
2019-06-20T16:09:09.168Z,24.01
2019-06-20T16:11:38.683Z,24.18
2019-06-20T16:14:08.311Z,24.40
2019-06-20T16:16:37.795Z,24.77
2019-06-20T16:19:07.352Z,25.12
2019-06-20T16:21:56.256Z,25.30
2019-06-20T16:24:25.891Z,25.39
2019-06-20T16:26:55.369Z,25.64
2019-06-20T16:29:24.955Z,26.00
2019-06-20T16:31:54.428Z,26.41
2019-06-20T16:34:23.886Z,26.78
2019-06-20T16:37:06.609Z,27.03
2019-06-20T16:39:24.597Z,27.14
2019-06-20T16:41:54.199Z,27.35
2019-06-20T16:44:23.667Z,27.71
2019-06-20T16:46:53.137Z,28.10
2019-06-20T16:49:22.718Z,28.53
2019-06-20T16:51:52.327Z,28.94
2019-06-20T16:54:21.886Z,29.41
2019-06-20T16:56:51.376Z,29.90
2019-06-20T16:59:20.848Z,30.37
2019-06-20T17:01:50.316Z,30.81
2019-06-20T17:04:19.846Z,31.09
2019-06-20T17:06:49.379Z,31.38
2019-06-20T17:09:18.930Z,31.64
2019-06-20T17:11:48.399Z,31.78
2019-06-20T17:14:18.040Z,31.69
2019-06-20T17:16:47.644Z,31.57
2019-06-20T17:19:17.276Z,31.62
2019-06-20T17:21:46.862Z,31.77
2019-06-20T17:24:16.411Z,31.97
2019-06-20T17:26:45.943Z,32.22
2019-06-20T17:29:15.449Z,32.51
2019-06-20T17:31:45.027Z,32.79
2019-06-20T17:34:14.543Z,32.99
2019-06-20T17:36:44.106Z,33.15
2019-06-20T17:39:13.673Z,33.31
2019-06-20T17:41:54.730Z,33.43
2019-06-20T17:44:14.390Z,33.49
2019-06-20T17:46:44.023Z,33.45
2019-06-20T17:49:13.499Z,33.33
2019-06-20T17:51:43.064Z,33.02
2019-06-20T17:54:12.543Z,32.57
2019-06-20T17:56:42.044Z,32.08
2019-06-20T17:59:11.537Z,31.57
2019-06-20T18:01:42.534Z,31.05
2019-06-20T18:04:14.098Z,30.52
2019-06-20T18:06:43.205Z,29.97
2019-06-20T18:09:12.739Z,29.44
2019-06-20T18:11:42.315Z,28.94
2019-06-20T18:14:11.809Z,28.48
2019-06-20T18:16:41.266Z,28.05
2019-06-20T18:19:10.827Z,27.63
2019-06-20T18:21:40.443Z,27.25
2019-06-20T18:24:09.992Z,26.89
2019-06-20T18:26:39.473Z,26.53
2019-06-20T18:29:08.978Z,26.19
2019-06-20T18:31:42.194Z,25.86
2019-06-20T18:34:10.072Z,25.57
2019-06-20T18:36:39.571Z,25.32
2019-06-20T18:39:09.811Z,25.07
2019-06-20T18:41:39.383Z,24.86
2019-06-20T18:44:09.012Z,24.67
2019-06-20T18:46:38.516Z,24.49
2019-06-20T18:49:08.137Z,24.30
2019-06-20T18:51:37.736Z,24.12
2019-06-20T18:54:07.331Z,23.96
2019-06-20T18:56:36.828Z,23.81
2019-06-20T18:59:06.426Z,23.65
2019-06-20T19:01:35.945Z,23.52
2019-06-20T19:04:05.824Z,23.40
2019-06-20T19:06:36.426Z,23.29
2019-06-20T19:09:10.647Z,23.16
2019-06-20T19:11:40.292Z,23.04
2019-06-20T19:14:12.646Z,22.93
2019-06-20T19:16:41.224Z,22.83
2019-06-20T19:19:10.697Z,22.70
2019-06-20T19:21:40.281Z,22.57
2019-06-20T19:24:09.779Z,22.39
2019-06-20T19:26:39.295Z,22.23
2019-06-20T19:29:08.803Z,22.05
2019-06-20T19:31:38.308Z,21.89
2019-06-20T19:34:07.809Z,21.75
2019-06-20T19:36:37.290Z,21.62
2019-06-20T19:39:08.471Z,21.50
2019-06-20T19:41:38.012Z,21.37
2019-06-20T19:44:07.573Z,21.24
2019-06-20T19:46:37.127Z,21.12
2019-06-20T19:49:06.753Z,21.02
2019-06-20T19:51:36.203Z,20.93
2019-06-20T19:54:05.839Z,20.83
2019-06-20T19:56:35.337Z,20.74
2019-06-20T19:59:05.014Z,20.66
2019-06-20T20:01:34.578Z,20.58
2019-06-20T20:04:04.300Z,20.52
2019-06-20T20:06:33.969Z,20.45
2019-06-20T20:09:04.577Z,20.40
2019-06-20T20:11:34.074Z,20.35
2019-06-20T20:14:03.737Z,20.29
2019-06-20T20:16:33.233Z,20.23
2019-06-20T20:19:02.780Z,20.14
2019-06-20T20:21:32.257Z,20.06
2019-06-20T20:24:01.842Z,19.99
2019-06-20T20:26:31.469Z,19.92
2019-06-20T20:29:00.981Z,19.84
2019-06-20T20:31:30.475Z,19.77
2019-06-20T20:34:00.033Z,19.70
2019-06-20T20:36:29.532Z,19.61
2019-06-20T20:38:59.011Z,19.51
2019-06-20T20:41:28.487Z,19.43
2019-06-20T20:43:57.969Z,19.34
2019-06-20T20:46:27.555Z,19.26
2019-06-20T20:48:57.063Z,19.16
2019-06-20T20:51:26.671Z,19.07
2019-06-20T20:53:56.324Z,18.98
2019-06-20T20:56:25.835Z,18.90
2019-06-20T20:58:55.311Z,18.81
2019-06-20T21:01:44.226Z,18.73
2019-06-20T21:04:13.742Z,18.67
2019-06-20T21:06:43.195Z,18.57
2019-06-20T21:09:12.734Z,18.51
2019-06-20T21:11:42.203Z,18.44
2019-06-20T21:14:11.776Z,18.37
2019-06-20T21:16:44.160Z,18.31
2019-06-20T21:19:18.105Z,18.22
2019-06-20T21:21:50.481Z,18.17
2019-06-20T21:24:23.270Z,18.10
2019-06-20T21:27:03.628Z,18.04
2019-06-20T21:29:33.102Z,17.96
2019-06-20T21:32:02.700Z,17.89
2019-06-20T21:34:32.342Z,17.83
2019-06-20T21:37:02.097Z,17.78
2019-06-20T21:39:31.645Z,17.74
2019-06-20T21:42:01.134Z,17.70
2019-06-20T21:44:30.605Z,17.65
2019-06-20T21:47:00.234Z,17.60
2019-06-20T21:49:30.014Z,17.55
2019-06-20T21:51:59.482Z,17.51
2019-06-20T21:54:28.975Z,17.48
2019-06-20T21:56:58.432Z,17.44
2019-06-20T21:59:28.208Z,17.39
2019-06-20T22:01:58.043Z,17.36
2019-06-20T22:04:27.574Z,17.31
2019-06-20T22:06:57.096Z,17.26
2019-06-20T22:09:26.559Z,17.21
2019-06-20T22:11:56.034Z,17.17
2019-06-20T22:14:25.522Z,17.13
2019-06-20T22:16:54.996Z,17.08
2019-06-20T22:19:24.510Z,17.01
2019-06-20T22:21:53.967Z,16.96
2019-06-20T22:24:23.536Z,16.92
2019-06-20T22:26:53.106Z,16.89
2019-06-20T22:29:22.686Z,16.87
2019-06-20T22:31:52.259Z,16.83
2019-06-20T22:34:21.708Z,16.81
2019-06-20T22:36:51.194Z,16.78
2019-06-20T22:39:20.655Z,16.75
2019-06-20T22:41:50.145Z,16.72
2019-06-20T22:44:19.641Z,16.71
2019-06-20T22:46:49.097Z,16.69
2019-06-20T22:49:18.553Z,16.68
2019-06-20T22:51:48.028Z,16.67
2019-06-20T22:54:17.508Z,16.67
2019-06-20T22:56:47.006Z,16.68
2019-06-20T22:59:16.508Z,16.68
2019-06-20T23:01:46.025Z,16.67
2019-06-20T23:04:15.510Z,16.65
2019-06-20T23:06:55.782Z,16.63
2019-06-20T23:09:16.158Z,16.62
2019-06-20T23:11:45.676Z,16.61
2019-06-20T23:14:15.177Z,16.58
2019-06-20T23:16:44.636Z,16.56
2019-06-20T23:19:14.082Z,16.54
2019-06-20T23:21:43.552Z,16.52
2019-06-20T23:24:13.385Z,16.51
2019-06-20T23:26:42.884Z,16.52
2019-06-20T23:29:25.035Z,16.51
2019-06-20T23:31:55.633Z,16.51
2019-06-20T23:34:25.175Z,16.51
2019-06-20T23:36:54.708Z,16.50
2019-06-20T23:39:24.186Z,16.50
2019-06-20T23:41:53.662Z,16.49
2019-06-20T23:44:23.155Z,16.49
2019-06-20T23:46:52.631Z,16.48
2019-06-20T23:49:22.113Z,16.48
2019-06-20T23:51:53.241Z,16.48
2019-06-20T23:54:42.071Z,16.46
2019-06-20T23:57:11.527Z,16.47
2019-06-20T23:59:41.005Z,16.48
